Time;durP1;ratioP1;P1;durP2;ratioP2;P2;SDS_P1;SDS_P2;PMS_P1;PMS_P2;Temp;Humidity;BMP_temperature;BMP_pressure;BME280_temperature;BME280_humidity;BME280_pressure;Samples;Min_cycle;Max_cycle;Signal;HPM_P1;HPM_P2
2023/04/10 00:01:00;;;;;;;33.37;21.33;;;7.80;65.90;;;;;;5093752;28;20189;-69
2023/04/10 00:03:46;;;;;;;34.97;21.20;;;7.70;65.90;;;;;;5093773;28;20204;-69
2023/04/10 00:06:17;;;;;;;30.90;21.47;;;7.70;66.50;;;;;;5093571;28;20287;-69
2023/04/10 00:09:22;;;;;;;32.17;20.83;;;7.70;66.40;;;;;;5093675;28;20203;-69
2023/04/10 00:12:05;;;;;;;33.60;22.10;;;7.70;65.90;;;;;;5093448;28;20192;-69
2023/04/10 00:14:47;;;;;;;34.40;22.90;;;7.70;65.80;;;;;;5093386;28;20205;-68
2023/04/10 00:17:26;;;;;;;37.77;22.30;;;7.60;66.00;;;;;;5093599;28;20201;-68
2023/04/10 00:20:03;;;;;;;27.47;19.07;;;7.60;66.30;;;;;;5093424;28;20205;-69
2023/04/10 00:22:37;;;;;;;26.37;16.80;;;7.60;66.30;;;;;;5093357;28;20231;-69
2023/04/10 00:25:10;;;;;;;32.10;17.03;;;7.50;66.10;;;;;;5093097;28;20218;-69
2023/04/10 00:27:46;;;;;;;33.03;19.70;;;7.50;66.30;;;;;;5093145;28;20196;-69
2023/04/10 00:30:15;;;;;;;33.53;20.60;;;7.40;66.00;;;;;;5093249;28;20604;-68
2023/04/10 00:32:44;;;;;;;33.03;21.00;;;7.30;66.30;;;;;;5091572;28;20224;-68
2023/04/10 00:35:14;;;;;;;33.90;20.37;;;7.20;66.60;;;;;;5092302;28;20201;-69
2023/04/10 00:37:45;;;;;;;30.77;19.67;;;7.20;67.10;;;;;;5082119;28;20204;-69
2023/04/10 00:40:14;;;;;;;32.00;21.17;;;7.10;67.50;;;;;;5092942;28;20738;-69
2023/04/10 00:42:45;;;;;;;35.97;22.20;;;7.10;67.50;;;;;;5092911;28;20196;-69
2023/04/10 00:45:15;;;;;;;37.30;23.13;;;7.10;67.70;;;;;;5091624;28;20221;-69
2023/04/10 00:47:44;;;;;;;38.20;23.00;;;7.10;67.90;;;;;;5092733;28;20307;-69
2023/04/10 00:50:12;;;;;;;33.63;20.70;;;7.10;68.10;;;;;;5091587;28;20197;-70
2023/04/10 00:52:41;;;;;;;34.97;22.93;;;7.00;68.50;;;;;;5076482;28;20292;-69
2023/04/10 00:55:11;;;;;;;38.93;22.60;;;7.00;68.60;;;;;;5071244;28;20201;-68
2023/04/10 00:57:44;;;;;;;38.73;23.57;;;6.90;68.50;;;;;;5071000;28;20679;-69
2023/04/10 01:00:16;;;;;;;35.97;21.53;;;6.90;68.80;;;;;;5072321;28;20228;-69
2023/04/10 01:02:45;;;;;;;31.47;21.30;;;6.90;68.90;;;;;;5072292;28;20217;-67
2023/04/10 01:05:14;;;;;;;41.00;21.83;;;7.00;69.10;;;;;;5071481;28;20631;-70
2023/04/10 01:07:53;;;;;;;42.87;24.07;;;7.00;68.50;;;;;;5072156;28;20265;-69
2023/04/10 01:10:35;;;;;;;37.63;23.70;;;6.90;68.80;;;;;;5072433;28;20551;-70
2023/04/10 01:13:16;;;;;;;38.93;23.33;;;6.90;68.80;;;;;;5071932;28;20246;-69
2023/04/10 01:15:52;;;;;;;40.37;24.00;;;6.90;68.80;;;;;;5072120;28;20231;-68
2023/04/10 01:18:28;;;;;;;37.50;22.63;;;6.80;68.60;;;;;;5070651;28;20228;-68
2023/04/10 01:20:59;;;;;;;40.00;23.17;;;6.80;69.00;;;;;;5070564;28;20207;-68
2023/04/10 01:24:07;;;;;;;34.03;22.23;;;6.80;69.60;;;;;;5071855;28;20292;-69
2023/04/10 01:26:52;;;;;;;35.73;22.67;;;6.70;69.70;;;;;;5049529;28;20235;-69
2023/04/10 01:29:26;;;;;;;36.07;23.27;;;6.70;69.80;;;;;;5049406;28;20292;-70
2023/04/10 01:32:02;;;;;;;40.20;25.67;;;6.60;70.10;;;;;;5032940;28;20202;-69
2023/04/10 01:34:36;;;;;;;36.90;23.03;;;6.60;70.60;;;;;;5049533;28;20769;-69
2023/04/10 01:37:12;;;;;;;38.07;23.90;;;6.60;70.50;;;;;;5032745;28;20205;-69
2023/04/10 01:39:43;;;;;;;39.43;24.67;;;6.60;70.50;;;;;;5049389;28;20288;-69
2023/04/10 01:42:15;;;;;;;36.30;22.70;;;6.50;70.40;;;;;;5032644;28;20206;-69
2023/04/10 01:44:47;;;;;;;39.77;24.87;;;6.60;70.70;;;;;;5032372;28;20229;-67
2023/04/10 01:47:17;;;;;;;39.53;24.73;;;6.60;70.50;;;;;;5032510;28;20241;-66
2023/04/10 01:49:49;;;;;;;42.03;23.87;;;6.60;70.00;;;;;;5032406;28;20202;-67
2023/04/10 01:52:19;;;;;;;38.40;24.23;;;6.60;69.90;;;;;;5032634;28;20217;-67
2023/04/10 01:54:54;;;;;;;36.00;23.00;;;6.50;70.00;;;;;;5032652;28;20213;-67
2023/04/10 01:57:34;;;;;;;39.80;23.27;;;6.50;70.10;;;;;;5032216;28;20209;-66
2023/04/10 02:00:06;;;;;;;40.57;24.77;;;6.40;70.00;;;;;;5032441;28;20225;-67
2023/04/10 02:02:42;;;;;;;33.03;22.83;;;6.40;70.40;;;;;;5055881;28;20204;-67
2023/04/10 02:05:12;;;;;;;43.33;24.33;;;6.40;70.30;;;;;;5106829;28;20242;-67
2023/04/10 02:07:45;;;;;;;38.73;23.63;;;6.40;70.10;;;;;;5091573;28;20196;-67
2023/04/10 02:10:22;;;;;;;39.20;24.00;;;6.40;70.50;;;;;;5073250;28;20200;-66
2023/04/10 02:12:59;;;;;;;36.00;22.17;;;6.50;70.40;;;;;;5073119;28;20685;-66
2023/04/10 02:15:32;;;;;;;38.03;24.23;;;6.50;70.20;;;;;;5073156;28;20568;-67
2023/04/10 02:18:11;;;;;;;39.10;23.50;;;6.40;69.80;;;;;;5094253;28;20211;-66
2023/04/10 02:20:43;;;;;;;35.20;22.13;;;6.30;70.00;;;;;;5077292;28;20199;-69
2023/04/10 02:23:15;;;;;;;34.63;22.90;;;6.30;70.50;;;;;;5095336;28;20188;-69
2023/04/10 02:25:45;;;;;;;37.77;23.33;;;6.30;70.60;;;;;;5095483;28;20216;-68
2023/04/10 02:28:14;;;;;;;34.20;20.87;;;6.30;70.60;;;;;;5077163;28;20228;-69
2023/04/10 02:30:44;;;;;;;35.07;23.60;;;6.30;71.10;;;;;;5076984;28;20208;-69
2023/04/10 02:33:15;;;;;;;42.50;23.03;;;6.30;71.20;;;;;;5095215;28;20263;-68
2023/04/10 02:35:44;;;;;;;38.20;22.67;;;6.30;71.20;;;;;;5095127;28;20189;-68
2023/04/10 02:38:13;;;;;;;35.43;23.00;;;6.30;71.40;;;;;;5095210;28;20271;-68
2023/04/10 02:40:51;;;;;;;35.07;21.37;;;6.20;71.70;;;;;;5095273;28;20204;-68
2023/04/10 02:43:21;;;;;;;37.00;22.10;;;6.20;72.10;;;;;;5076735;28;20204;-68
2023/04/10 02:45:51;;;;;;;35.30;21.27;;;6.20;72.50;;;;;;5076773;28;20244;-68
2023/04/10 02:48:27;;;;;;;34.83;21.17;;;6.20;72.60;;;;;;5110784;28;20235;-68
2023/04/10 02:51:03;;;;;;;34.27;22.33;;;6.30;72.80;;;;;;5094886;28;20270;-69
2023/04/10 02:53:33;;;;;;;34.67;21.53;;;6.30;72.30;;;;;;5094895;28;20553;-69
2023/04/10 02:56:05;;;;;;;32.87;21.43;;;6.30;72.30;;;;;;5094821;28;20561;-69
2023/04/10 02:58:37;;;;;;;30.13;19.63;;;6.30;72.70;;;;;;5076537;28;20204;-69
2023/04/10 03:01:16;;;;;;;32.77;19.50;;;6.30;72.90;;;;;;5076691;28;20222;-69
2023/04/10 03:03:47;;;;;;;31.87;19.20;;;6.30;72.60;;;;;;5113649;28;20253;-69
2023/04/10 03:06:28;;;;;;;28.23;19.13;;;6.30;72.30;;;;;;5097007;28;20223;-69
2023/04/10 03:08:59;;;;;;;30.03;18.60;;;6.40;72.10;;;;;;5131046;27;20691;-69
2023/04/10 03:11:33;;;;;;;27.37;18.27;;;6.40;72.10;;;;;;5115500;28;20195;-68
2023/04/10 03:14:02;;;;;;;30.80;19.43;;;6.40;71.90;;;;;;5096723;28;20266;-68
2023/04/10 03:16:32;;;;;;;29.30;18.20;;;6.40;72.10;;;;;;5115060;28;20188;-68
2023/04/10 03:19:07;;;;;;;29.03;19.47;;;6.30;72.40;;;;;;5096784;28;20223;-68
2023/04/10 03:21:36;;;;;;;27.90;19.33;;;6.30;72.60;;;;;;5130830;27;20210;-69
2023/04/10 03:24:14;;;;;;;30.87;20.20;;;6.30;73.10;;;;;;5096195;28;20253;-69
2023/04/10 03:26:45;;;;;;;30.37;18.93;;;6.30;73.00;;;;;;5114899;28;20307;-69
2023/04/10 03:29:17;;;;;;;34.03;20.27;;;6.30;73.70;;;;;;5095136;28;20238;-70
2023/04/10 03:31:53;;;;;;;32.57;19.83;;;6.30;74.80;;;;;;5114828;28;20260;-69
2023/04/10 03:34:22;;;;;;;35.33;21.07;;;6.30;74.50;;;;;;5096296;28;20207;-68
2023/04/10 03:36:51;;;;;;;36.30;20.43;;;6.30;74.80;;;;;;5114843;28;20199;-69
2023/04/10 03:39:22;;;;;;;35.03;19.00;;;6.30;75.00;;;;;;5114841;28;20206;-69
2023/04/10 03:41:54;;;;;;;39.70;21.00;;;6.40;75.00;;;;;;5096430;28;20257;-69
2023/04/10 03:44:26;;;;;;;35.90;19.37;;;6.40;75.30;;;;;;5096094;28;20666;-69
2023/04/10 03:47:02;;;;;;;36.03;19.70;;;6.40;75.90;;;;;;5096001;28;20235;-69
2023/04/10 03:49:32;;;;;;;33.90;18.47;;;6.30;76.50;;;;;;5096095;28;20227;-69
2023/04/10 03:52:06;;;;;;;31.93;17.40;;;6.30;77.20;;;;;;5130264;27;20206;-68
2023/04/10 03:54:39;;;;;;;28.93;16.80;;;6.20;77.40;;;;;;5095840;28;20756;-69
2023/04/10 03:57:24;;;;;;;30.67;16.83;;;6.20;77.40;;;;;;5095063;28;20535;-69
2023/04/10 03:59:58;;;;;;;28.03;16.03;;;6.30;77.30;;;;;;5129971;27;20199;-69
2023/04/10 04:02:35;;;;;;;27.67;17.23;;;6.30;76.80;;;;;;5095743;28;20199;-71
2023/04/10 04:05:05;;;;;;;30.00;17.30;;;6.30;76.60;;;;;;5095615;28;20203;-69
2023/04/10 04:07:46;;;;;;;32.63;16.57;;;6.30;76.30;;;;;;5095531;28;20599;-69
2023/04/10 04:10:31;;;;;;;29.63;16.67;;;6.30;76.40;;;;;;5129786;27;20205;-69
2023/04/10 04:13:14;;;;;;;30.40;16.57;;;6.20;76.90;;;;;;5095358;28;20196;-70
2023/04/10 04:16:04;;;;;;;30.23;18.53;;;6.10;77.10;;;;;;5113510;28;20253;-69
2023/04/10 04:18:50;;;;;;;35.10;18.17;;;6.10;77.70;;;;;;5095410;28;20298;-69
2023/04/10 04:21:33;;;;;;;36.93;19.00;;;6.10;78.10;;;;;;5094666;28;20203;-66
2023/04/10 04:24:12;;;;;;;27.97;16.97;;;6.00;78.70;;;;;;5095301;28;20209;-69
2023/04/10 04:26:58;;;;;;;33.97;18.50;;;6.00;79.20;;;;;;5095259;28;20422;-69
2023/04/10 04:29:47;;;;;;;29.30;17.30;;;6.00;79.00;;;;;;5112991;28;20718;-69
2023/04/10 04:32:25;;;;;;;37.80;19.40;;;6.00;79.60;;;;;;5094881;28;20263;-69
2023/04/10 04:35:01;;;;;;;35.63;19.03;;;5.90;80.20;;;;;;5094992;28;20327;-69
2023/04/10 04:37:52;;;;;;;29.93;18.17;;;6.00;80.40;;;;;;5095030;28;20207;-69
2023/04/10 04:40:42;;;;;;;28.93;16.63;;;5.90;80.40;;;;;;5128834;27;20703;-68
2023/04/10 04:43:34;;;;;;;36.20;19.27;;;6.00;80.70;;;;;;5113114;28;20211;-69
2023/04/10 04:46:34;;;;;;;33.00;18.60;;;6.00;80.40;;;;;;5113638;27;20226;-69
2023/04/10 04:49:31;;;;;;;29.33;17.67;;;5.90;80.30;;;;;;5123633;27;20214;-68
2023/04/10 04:52:35;;;;;;;35.47;18.40;;;6.00;80.30;;;;;;5010537;28;20213;-69
2023/04/10 04:55:16;;;;;;;29.77;17.20;;;5.90;80.20;;;;;;4933026;29;20586;-69
2023/04/10 04:57:54;;;;;;;36.90;22.13;;;6.00;80.70;;;;;;4932670;29;20307;-69
2023/04/10 05:01:01;;;;;;;36.07;21.10;;;6.00;80.40;;;;;;4929168;29;20595;-69
2023/04/10 05:04:03;;;;;;;32.57;19.60;;;5.90;81.00;;;;;;4945943;29;20204;-69
2023/04/10 05:06:53;;;;;;;36.03;20.27;;;5.90;81.10;;;;;;4951937;29;20240;-68
2023/04/10 05:09:43;;;;;;;39.83;21.43;;;5.90;81.60;;;;;;4952075;29;20202;-69
2023/04/10 05:12:40;;;;;;;37.80;19.20;;;6.00;82.00;;;;;;4932651;29;20288;-68
2023/04/10 05:15:27;;;;;;;35.60;19.87;;;6.10;81.60;;;;;;4932750;29;20218;-69
2023/04/10 05:18:18;;;;;;;36.27;20.77;;;6.10;81.10;;;;;;4916627;29;20277;-68
2023/04/10 05:21:08;;;;;;;36.20;20.33;;;6.10;81.70;;;;;;4954856;28;20294;-69
2023/04/10 05:23:55;;;;;;;34.50;18.70;;;6.10;81.70;;;;;;4971123;28;20601;-69
2023/04/10 05:26:48;;;;;;;34.27;20.13;;;6.20;82.60;;;;;;4951637;28;20221;-68
2023/04/10 05:29:53;;;;;;;37.63;19.80;;;6.20;82.50;;;;;;4990136;28;20289;-68
2023/04/10 05:32:38;;;;;;;35.70;20.43;;;6.20;82.30;;;;;;4990333;28;20717;-69
2023/04/10 05:35:26;;;;;;;35.27;20.13;;;6.20;82.60;;;;;;4999894;28;20206;-69
2023/04/10 05:38:04;;;;;;;37.83;21.10;;;6.30;83.90;;;;;;4993296;28;20223;-69
2023/04/10 05:40:45;;;;;;;39.03;22.57;;;6.30;83.80;;;;;;4985431;28;20202;-68
2023/04/10 05:43:45;;;;;;;38.87;20.73;;;6.40;84.90;;;;;;4997624;28;20223;-69
2023/04/10 05:46:27;;;;;;;34.23;19.03;;;6.40;85.60;;;;;;4993794;28;20202;-69
2023/04/10 05:49:30;;;;;;;31.63;19.50;;;6.50;85.90;;;;;;5010371;28;20266;-68
2023/04/10 05:52:15;;;;;;;40.17;19.97;;;6.60;86.60;;;;;;5024761;28;20293;-67
2023/04/10 05:55:03;;;;;;;30.50;18.73;;;6.70;86.50;;;;;;4973665;28;20270;-68
2023/04/10 05:57:51;;;;;;;31.40;19.60;;;6.70;85.90;;;;;;5009387;28;20249;-68
2023/04/10 06:00:39;;;;;;;33.33;19.80;;;6.80;86.10;;;;;;5009299;28;20293;-68
2023/04/10 06:03:38;;;;;;;36.37;20.33;;;6.80;86.10;;;;;;4991941;28;20208;-69
2023/04/10 06:06:14;;;;;;;30.30;19.37;;;6.80;87.70;;;;;;4986432;28;20316;-67
2023/04/10 06:08:42;;;;;;;35.03;21.50;;;6.80;88.90;;;;;;4970287;28;20290;-67
2023/04/10 06:11:12;;;;;;;36.10;22.00;;;6.80;89.70;;;;;;4970603;28;21155;-67
2023/04/10 06:13:44;;;;;;;29.93;20.77;;;6.90;90.30;;;;;;4971551;28;20207;-67
2023/04/10 06:16:15;;;;;;;38.27;21.97;;;6.90;90.30;;;;;;4974131;28;20637;-68
2023/04/10 06:18:46;;;;;;;65.27;38.60;;;7.00;90.60;;;;;;4988137;28;20208;-69
2023/04/10 06:21:15;;;;;;;42.67;26.73;;;7.10;92.10;;;;;;5002832;28;20250;-68
2023/04/10 06:23:47;;;;;;;39.97;24.83;;;7.20;92.10;;;;;;5009982;28;20203;-70
2023/04/10 06:26:16;;;;;;;43.60;28.03;;;7.30;92.20;;;;;;5061079;28;20254;-70
2023/04/10 06:28:45;;;;;;;36.33;22.77;;;7.40;92.80;;;;;;5093304;28;20227;-69
2023/04/10 06:31:20;;;;;;;37.03;21.67;;;7.50;93.50;;;;;;5093597;28;20199;-69
2023/04/10 06:33:54;;;;;;;37.43;22.50;;;7.50;93.20;;;;;;5112031;28;20613;-69
2023/04/10 06:36:27;;;;;;;39.50;22.33;;;7.60;93.10;;;;;;5093488;28;20206;-68
2023/04/10 06:39:05;;;;;;;36.90;22.20;;;7.70;94.30;;;;;;5093696;28;20276;-69
2023/04/10 06:41:34;;;;;;;29.60;18.73;;;7.80;94.80;;;;;;5093240;28;20203;-69
2023/04/10 06:44:15;;;;;;;21.33;14.57;;;7.90;95.70;;;;;;5093580;28;20195;-68
2023/04/10 06:46:45;;;;;;;21.17;14.33;;;8.00;96.30;;;;;;5114703;28;20218;-67
2023/04/10 06:49:14;;;;;;;24.27;15.33;;;8.10;96.80;;;;;;5114662;28;20247;-67
2023/04/10 06:51:44;;;;;;;18.23;14.20;;;8.30;97.20;;;;;;5112052;28;20196;-70
2023/04/10 06:54:13;;;;;;;21.50;15.50;;;8.40;97.70;;;;;;5111965;28;20198;-70
2023/04/10 06:56:42;;;;;;;19.63;15.03;;;8.50;97.10;;;;;;5111229;28;20227;-70
2023/04/10 06:59:11;;;;;;;21.23;14.37;;;8.60;98.00;;;;;;5111878;28;20196;-70
2023/04/10 07:01:39;;;;;;;18.07;13.03;;;8.70;97.80;;;;;;5126120;28;20187;-69
2023/04/10 07:04:10;;;;;;;20.10;13.73;;;8.80;98.30;;;;;;5134968;27;20664;-69
2023/04/10 07:06:39;;;;;;;21.03;12.93;;;8.90;98.30;;;;;;5122304;27;20684;-70
2023/04/10 07:09:09;;;;;;;17.70;12.23;;;9.00;98.60;;;;;;5130097;27;20223;-70
2023/04/10 07:11:48;;;;;;;16.13;11.43;;;9.20;98.40;;;;;;5132310;27;20250;-69
2023/04/10 07:14:29;;;;;;;19.57;12.27;;;9.30;98.60;;;;;;5132870;27;20211;-68
2023/04/10 07:16:58;;;;;;;19.83;12.30;;;9.50;98.70;;;;;;5137085;27;20309;-68
2023/04/10 07:19:37;;;;;;;18.17;11.73;;;9.60;98.10;;;;;;5135826;27;20203;-68
2023/04/10 07:22:15;;;;;;;19.20;13.70;;;9.80;98.00;;;;;;5135796;27;20660;-68
2023/04/10 07:24:47;;;;;;;17.67;13.10;;;9.90;97.30;;;;;;5135883;27;20275;-68
2023/04/10 07:27:15;;;;;;;16.10;14.00;;;10.00;98.10;;;;;;5134700;27;20197;-69
2023/04/10 07:29:47;;;;;;;17.47;13.90;;;10.20;97.20;;;;;;5124089;27;20334;-68
2023/04/10 07:32:15;;;;;;;21.97;13.93;;;10.30;96.70;;;;;;5135602;27;20558;-69
2023/04/10 07:34:46;;;;;;;21.47;15.17;;;10.50;96.30;;;;;;5134378;27;20203;-69
2023/04/10 07:37:15;;;;;;;24.00;14.83;;;10.60;95.50;;;;;;5135500;27;20612;-69
2023/04/10 07:39:44;;;;;;;20.17;14.67;;;10.70;95.80;;;;;;5135050;27;20604;-68
2023/04/10 07:42:13;;;;;;;23.13;14.60;;;10.90;96.00;;;;;;5135315;27;20198;-68
2023/04/10 07:44:42;;;;;;;26.77;17.53;;;11.00;95.30;;;;;;5134727;27;20237;-68
2023/04/10 07:47:11;;;;;;;22.67;15.93;;;11.20;93.10;;;;;;5135207;27;20192;-69
2023/04/10 07:49:53;;;;;;;24.23;16.03;;;11.30;94.40;;;;;;5117146;27;20234;-67
2023/04/10 07:52:32;;;;;;;17.80;12.77;;;11.50;94.90;;;;;;5135065;27;20200;-69
2023/04/10 07:55:14;;;;;;;19.77;13.27;;;11.70;93.80;;;;;;5134773;27;20191;-69
2023/04/10 08:00:49;;;;;;;18.87;12.97;;;12.10;90.60;;;;;;5134840;27;20195;-68
2023/04/10 08:03:20;;;;;;;20.23;12.53;;;12.30;91.70;;;;;;5135091;27;20610;-68
2023/04/10 08:05:53;;;;;;;17.53;12.13;;;12.50;90.20;;;;;;5134733;27;20704;-68
2023/04/10 08:08:27;;;;;;;16.07;11.10;;;12.60;89.00;;;;;;5134709;27;20291;-68
2023/04/10 08:10:56;;;;;;;19.20;10.77;;;12.80;90.20;;;;;;5116276;27;20607;-68
2023/04/10 08:13:31;;;;;;;17.17;11.43;;;13.00;89.50;;;;;;5134630;27;20256;-68
2023/04/10 08:19:35;;;;;;;17.00;11.27;;;13.40;84.30;;;;;;5115935;27;20198;-68
2023/04/10 08:22:17;;;;;;;15.03;10.80;;;13.60;79.30;;;;;;5115569;27;20226;-67
2023/04/10 08:25:07;;;;;;;23.67;13.87;;;13.80;76.80;;;;;;5130892;27;20667;-66
2023/04/10 08:27:37;;;;;;;14.20;10.13;;;14.00;81.10;;;;;;5151248;27;20606;-67
2023/04/10 08:30:09;;;;;;;16.80;10.40;;;14.20;74.10;;;;;;5130996;27;20629;-66
2023/04/10 08:32:44;;;;;;;11.83;9.30;;;14.40;73.70;;;;;;5115919;27;20686;-66
2023/04/10 08:35:13;;;;;;;10.80;8.23;;;14.50;70.40;;;;;;5134006;27;20202;-67
2023/04/10 08:37:54;;;;;;;10.30;7.73;;;14.70;67.00;;;;;;5133849;27;20202;-67
2023/04/10 08:41:03;;;;;;;12.27;7.93;;;14.80;68.70;;;;;;5134039;27;20199;-66
2023/04/10 08:43:34;;;;;;;10.00;7.37;;;15.00;64.50;;;;;;5133882;27;20206;-71
2023/04/10 08:46:03;;;;;;;8.73;7.00;;;15.10;62.80;;;;;;5133858;27;20202;-70
2023/04/10 08:48:38;;;;;;;6.13;5.40;;;15.20;61.40;;;;;;5133555;27;20243;-70
2023/04/10 08:51:11;;;;;;;8.43;5.63;;;15.30;59.20;;;;;;5133569;27;20202;-66
2023/04/10 08:53:51;;;;;;;8.23;5.23;;;15.30;58.90;;;;;;5133645;27;20190;-66
2023/04/10 08:56:21;;;;;;;4.87;4.47;;;15.40;58.80;;;;;;5133710;27;20226;-66
2023/04/10 08:58:52;;;;;;;5.70;5.07;;;15.60;59.60;;;;;;5133558;27;20195;-67
2023/04/10 09:01:21;;;;;;;5.10;4.60;;;15.70;57.50;;;;;;5114877;27;20202;-67
2023/04/10 09:03:50;;;;;;;4.90;4.40;;;15.80;55.70;;;;;;5133257;27;20191;-66
2023/04/10 09:06:19;;;;;;;5.70;4.83;;;15.90;55.70;;;;;;5133729;27;20199;-67
2023/04/10 09:08:48;;;;;;;6.37;4.17;;;15.90;54.80;;;;;;5133503;27;20210;-67
2023/04/10 09:11:17;;;;;;;6.40;4.37;;;15.80;53.30;;;;;;5133475;27;20210;-67
2023/04/10 09:13:46;;;;;;;5.30;4.43;;;15.80;54.50;;;;;;5133360;27;20203;-68
2023/04/10 09:16:15;;;;;;;4.33;3.90;;;15.90;54.50;;;;;;5133172;27;20712;-67
2023/04/10 09:18:46;;;;;;;5.23;4.07;;;16.00;53.90;;;;;;5133467;27;20289;-67
2023/04/10 09:21:17;;;;;;;7.50;3.70;;;16.20;54.10;;;;;;5133188;27;20191;-67
2023/04/10 09:24:03;;;;;;;3.90;3.50;;;16.30;53.80;;;;;;5133138;27;20232;-67
2023/04/10 09:26:53;;;;;;;4.47;4.07;;;16.50;53.50;;;;;;5132411;27;20190;-68
2023/04/10 09:29:23;;;;;;;5.20;3.83;;;16.80;53.00;;;;;;5114261;27;20257;-67
2023/04/10 09:31:52;;;;;;;4.97;4.30;;;17.10;51.10;;;;;;5132930;27;20675;-69
2023/04/10 09:34:22;;;;;;;4.00;3.60;;;17.30;52.30;;;;;;5132894;27;20192;-67
2023/04/10 09:36:55;;;;;;;3.50;3.20;;;17.80;52.10;;;;;;5132926;27;20195;-65
2023/04/10 09:39:35;;;;;;;3.93;3.53;;;18.30;49.40;;;;;;5132810;27;20208;-70
2023/04/10 09:42:06;;;;;;;4.77;3.90;;;18.50;46.40;;;;;;5133084;27;20551;-66
2023/04/10 09:44:36;;;;;;;4.00;3.20;;;18.90;50.00;;;;;;5114422;27;20205;-64
2023/04/10 09:47:17;;;;;;;4.27;3.87;;;19.40;48.80;;;;;;5132671;27;20218;-66
2023/04/10 09:49:47;;;;;;;5.87;4.40;;;19.70;47.60;;;;;;5132978;27;20250;-64
2023/04/10 09:52:21;;;;;;;4.73;3.90;;;19.90;43.70;;;;;;5125472;27;20552;-67
2023/04/10 09:54:52;;;;;;;6.20;3.50;;;20.40;46.20;;;;;;5140716;27;20206;-67
2023/04/10 09:57:25;;;;;;;3.33;2.90;;;21.00;46.70;;;;;;5134882;27;20241;-66
2023/04/10 09:59:55;;;;;;;4.50;3.27;;;21.20;44.10;;;;;;5125130;27;20690;-66
2023/04/10 10:02:25;;;;;;;4.90;3.93;;;21.60;42.60;;;;;;5111798;28;20545;-67
2023/04/10 10:04:55;;;;;;;5.47;3.60;;;21.70;41.20;;;;;;5125779;27;20662;-67
2023/04/10 10:07:24;;;;;;;3.70;3.40;;;22.10;42.10;;;;;;5128442;27;20197;-65
2023/04/10 10:09:55;;;;;;;4.03;3.73;;;22.60;42.60;;;;;;5132547;27;20214;-67
2023/04/10 10:12:29;;;;;;;4.17;3.40;;;23.00;42.80;;;;;;5132400;27;20218;-67
2023/04/10 10:15:03;;;;;;;3.83;2.87;;;23.40;40.50;;;;;;5132560;27;20779;-69
2023/04/10 10:17:37;;;;;;;9.87;6.60;;;23.70;39.60;;;;;;5132506;27;20199;-69
2023/04/10 10:20:09;;;;;;;11.20;7.37;;;24.00;38.60;;;;;;5132317;27;20187;-69
2023/04/10 10:22:38;;;;;;;10.03;7.23;;;24.40;38.10;;;;;;5132355;27;20209;-67
2023/04/10 10:25:10;;;;;;;4.70;4.27;;;24.70;37.20;;;;;;5132231;27;20188;-66
2023/04/10 10:27:41;;;;;;;3.17;2.87;;;24.90;33.20;;;;;;5132246;27;20226;-66
2023/04/10 10:30:12;;;;;;;4.60;3.30;;;25.00;34.90;;;;;;5132182;27;20266;-70
2023/04/10 10:32:56;;;;;;;15.33;10.77;;;25.20;34.30;;;;;;5132150;27;20211;-69
2023/04/10 10:35:25;;;;;;;7.13;5.43;;;25.40;32.90;;;;;;5131927;28;20284;-66
2023/04/10 10:37:58;;;;;;;5.30;3.37;;;25.60;31.90;;;;;;5133251;27;20198;-67
2023/04/10 10:40:32;;;;;;;4.20;3.80;;;25.80;31.40;;;;;;5128994;27;20281;-68
2023/04/10 10:43:11;;;;;;;20.87;15.47;;;26.10;31.30;;;;;;5130976;27;20200;-68
2023/04/10 10:45:46;;;;;;;8.23;7.13;;;26.30;31.20;;;;;;5136112;27;20675;-68
2023/04/10 10:48:15;;;;;;;14.83;11.03;;;26.30;31.00;;;;;;5136000;27;20269;-68
2023/04/10 10:50:57;;;;;;;15.80;8.57;;;26.60;31.90;;;;;;5128604;27;20223;-69
2023/04/10 10:53:37;;;;;;;9.07;7.00;;;27.00;30.60;;;;;;5118512;27;20202;-68
2023/04/10 10:56:35;;;;;;;6.90;5.53;;;27.20;30.10;;;;;;5116086;28;20216;-70
2023/04/10 10:59:04;;;;;;;5.80;2.93;;;27.40;29.20;;;;;;5115849;28;20609;-70
2023/04/10 11:01:33;;;;;;;3.07;2.40;;;27.60;29.70;;;;;;5115610;28;20592;-68
2023/04/10 11:04:40;;;;;;;3.03;2.50;;;27.90;28.80;;;;;;5096764;28;20568;-68
2023/04/10 11:07:09;;;;;;;3.50;2.90;;;28.30;28.90;;;;;;5115779;28;20206;-67
2023/04/10 11:09:59;;;;;;;3.23;2.50;;;28.40;28.00;;;;;;5115604;28;20665;-69
2023/04/10 11:12:30;;;;;;;2.10;1.90;;;28.30;27.60;;;;;;5052919;28;20206;-68
2023/04/10 11:15:00;;;;;;;3.30;2.30;;;28.30;27.60;;;;;;5052268;28;20587;-68
2023/04/10 11:17:52;;;;;;;2.30;2.10;;;28.20;26.90;;;;;;5052532;28;20205;-70
2023/04/10 11:20:25;;;;;;;2.60;2.20;;;28.20;26.90;;;;;;5052713;28;20232;-68
2023/04/10 11:23:11;;;;;;;3.57;2.30;;;28.20;26.70;;;;;;5070475;28;20201;-68
2023/04/10 11:25:50;;;;;;;11.77;5.30;;;28.10;26.50;;;;;;5072717;28;20335;-67
2023/04/10 11:28:39;;;;;;;4.47;2.37;;;27.90;28.50;;;;;;5072404;28;20737;-67
2023/04/10 11:31:20;;;;;;;4.27;2.10;;;27.90;26.60;;;;;;5072181;28;20566;-67
2023/04/10 11:33:52;;;;;;;5.50;4.10;;;27.70;25.90;;;;;;5071626;28;20228;-65
2023/04/10 11:36:21;;;;;;;8.67;5.87;;;26.80;29.00;;;;;;5072402;28;20748;-72
2023/04/10 11:38:57;;;;;;;18.60;10.70;;;26.40;29.90;;;;;;5072325;28;20193;-68
2023/04/10 11:41:32;;;;;;;10.83;8.30;;;26.60;32.80;;;;;;5072298;28;20247;-69
2023/04/10 11:44:04;;;;;;;13.97;9.97;;;26.90;32.30;;;;;;5071935;28;20212;-67
2023/04/10 11:46:37;;;;;;;15.93;11.10;;;27.30;32.80;;;;;;5070332;28;21003;-67
2023/04/10 11:49:08;;;;;;;17.00;11.33;;;27.30;32.30;;;;;;5070398;28;20223;-67
2023/04/10 11:51:37;;;;;;;21.70;14.47;;;26.70;32.30;;;;;;5117449;27;20214;-75
2023/04/10 11:54:11;;;;;;;35.87;25.87;;;26.30;33.10;;;;;;5134458;27;20195;-67
2023/04/10 11:56:42;;;;;;;24.93;18.47;;;26.30;33.10;;;;;;5135088;27;20195;-66
2023/04/10 11:59:14;;;;;;;9.43;6.90;;;26.40;33.70;;;;;;5135537;27;20248;-67
2023/04/10 12:01:44;;;;;;;7.47;5.00;;;26.70;34.30;;;;;;5134736;27;20639;-67
2023/04/10 12:04:16;;;;;;;8.37;4.40;;;26.80;33.60;;;;;;5134081;27;20175;-68
2023/04/10 12:06:46;;;;;;;7.30;5.20;;;26.90;33.50;;;;;;5134494;27;20203;-72
2023/04/10 12:09:16;;;;;;;11.07;8.33;;;26.90;32.90;;;;;;5134937;27;20203;-71
2023/04/10 12:12:02;;;;;;;12.47;6.33;;;26.90;33.70;;;;;;5112789;28;20250;-67
2023/04/10 12:14:34;;;;;;;7.50;6.30;;;27.00;33.80;;;;;;5114358;28;20260;-68
2023/04/10 12:17:04;;;;;;;14.90;11.10;;;26.90;33.50;;;;;;5113657;28;20604;-68
2023/04/10 12:19:33;;;;;;;7.17;5.93;;;27.20;34.80;;;;;;5116308;27;20203;-65
2023/04/10 12:22:03;;;;;;;5.17;4.40;;;27.50;33.40;;;;;;5136234;27;20302;-67
2023/04/10 12:24:42;;;;;;;7.30;5.07;;;27.60;33.50;;;;;;5133941;27;20217;-65
2023/04/10 12:27:17;;;;;;;10.07;8.00;;;27.90;33.60;;;;;;5117158;27;20204;-67
2023/04/10 12:29:48;;;;;;;9.17;5.63;;;28.10;33.10;;;;;;5129284;27;20600;-66
2023/04/10 12:32:17;;;;;;;10.07;6.53;;;28.20;33.30;;;;;;5113372;28;20231;-66
2023/04/10 12:34:51;;;;;;;8.17;6.33;;;28.40;32.80;;;;;;5114075;28;20242;-67
2023/04/10 12:37:20;;;;;;;10.73;5.80;;;28.60;32.80;;;;;;5132463;27;20276;-68
2023/04/10 12:39:49;;;;;;;7.97;4.77;;;28.70;32.70;;;;;;5134520;27;20184;-67
2023/04/10 12:42:19;;;;;;;6.27;4.10;;;28.70;32.00;;;;;;5134390;27;20203;-69
2023/04/10 12:44:55;;;;;;;7.47;3.80;;;28.90;31.70;;;;;;5134442;27;20245;-76
2023/04/10 12:47:24;;;;;;;12.90;7.47;;;28.50;30.50;;;;;;5121732;27;20223;-68
2023/04/10 12:50:10;;;;;;;8.50;5.30;;;28.30;32.70;;;;;;5126515;27;20195;-68
2023/04/10 12:52:42;;;;;;;11.00;6.23;;;28.60;31.80;;;;;;5134065;27;20225;-68
2023/04/10 12:55:14;;;;;;;8.50;5.77;;;28.80;32.10;;;;;;5133982;27;20206;-68
2023/04/10 12:57:44;;;;;;;10.13;5.73;;;28.90;31.10;;;;;;5124470;27;21611;-69
2023/04/10 13:00:16;;;;;;;7.30;5.83;;;28.60;30.00;;;;;;5129634;27;20199;-68
2023/04/10 13:02:47;;;;;;;6.73;5.10;;;28.40;30.80;;;;;;5133105;27;20248;-68
2023/04/10 13:05:16;;;;;;;6.73;4.23;;;28.10;30.40;;;;;;5133296;27;20194;-69
2023/04/10 13:07:44;;;;;;;15.90;12.27;;;27.40;29.60;;;;;;5125264;27;20200;-70
2023/04/10 13:10:13;;;;;;;9.53;7.20;;;26.90;30.80;;;;;;5146240;27;20277;-69
2023/04/10 13:12:43;;;;;;;20.30;16.30;;;26.70;30.80;;;;;;5133087;27;20317;-69
2023/04/10 13:15:12;;;;;;;23.30;19.20;;;26.70;31.80;;;;;;5133434;27;20274;-69
2023/04/10 13:17:42;;;;;;;15.87;12.77;;;26.80;32.20;;;;;;5133383;27;20195;-71
2023/04/10 13:20:12;;;;;;;14.20;12.57;;;27.00;32.10;;;;;;5133358;27;20247;-70
2023/04/10 13:22:41;;;;;;;7.77;6.93;;;26.70;31.10;;;;;;5133238;27;20213;-69
2023/04/10 13:25:09;;;;;;;18.60;13.63;;;25.90;30.60;;;;;;5133296;27;20187;-69
2023/04/10 13:27:38;;;;;;;12.60;9.53;;;25.60;32.70;;;;;;5133230;27;20527;-70